createdAt,value
2023-04-25T00:02:17.313Z,100446.31
2023-04-25T00:05:24.484Z,100440.69
2023-04-25T00:08:31.628Z,100441.56
2023-04-25T00:11:38.269Z,100443.44
2023-04-25T00:14:44.251Z,100443.44
2023-04-25T00:17:50.176Z,100444.69
2023-04-25T00:20:55.384Z,100444.13
2023-04-25T00:24:01.760Z,100450.38
2023-04-25T00:27:06.781Z,100440.44
2023-04-25T00:30:13.752Z,100441.25
2023-04-25T00:33:18.980Z,100440.91
2023-04-25T00:36:24.680Z,100444.94
2023-04-25T00:39:30.332Z,100446.22
2023-04-25T00:42:38.263Z,100445.97
2023-04-25T00:45:44.562Z,100454.69
2023-04-25T00:48:50.183Z,100448.97
2023-04-25T00:51:55.813Z,100444.09
2023-04-25T00:55:02.360Z,100433.41
2023-04-25T00:58:07.959Z,100431.53
2023-04-25T01:01:14.398Z,100422.75
2023-04-25T01:04:20.284Z,100424.88
2023-04-25T01:07:26.225Z,100428.59
2023-04-25T01:10:31.662Z,100421.66
2023-04-25T01:13:37.679Z,100426.53
2023-04-25T01:16:44.132Z,100422.25
2023-04-25T01:19:50.170Z,100412.06
2023-04-25T01:22:57.005Z,100415.34
2023-04-25T01:26:03.651Z,100420.72
2023-04-25T01:29:09.506Z,100421.56
2023-04-25T01:32:15.670Z,100415.88
2023-04-25T01:35:21.661Z,100414.28
2023-04-25T01:38:27.381Z,100404.41
2023-04-25T01:41:35.727Z,100407.38
2023-04-25T01:44:42.037Z,100410.00
2023-04-25T01:47:51.193Z,100407.97
2023-04-25T01:50:56.381Z,100408.44
2023-04-25T01:54:02.836Z,100399.06
2023-04-25T01:57:08.395Z,100406.34
2023-04-25T02:00:16.402Z,100404.69
2023-04-25T02:03:21.733Z,100396.72
2023-04-25T02:06:27.770Z,100387.00
2023-04-25T02:09:36.286Z,100383.25
2023-04-25T02:12:45.200Z,100381.31
2023-04-25T02:16:00.961Z,100371.66
2023-04-25T02:19:07.348Z,100359.56
2023-04-25T02:22:12.936Z,100375.31
2023-04-25T02:25:21.423Z,100369.66
2023-04-25T02:28:27.436Z,100360.00
2023-04-25T02:31:32.942Z,100375.25
2023-04-25T02:34:39.110Z,100366.66
2023-04-25T02:37:44.798Z,100364.69
2023-04-25T02:40:52.793Z,100362.47
2023-04-25T02:43:58.333Z,100358.56
2023-04-25T02:47:03.735Z,100355.91
2023-04-25T02:50:09.015Z,100353.19
2023-04-25T02:53:14.825Z,100349.66
2023-04-25T02:56:27.468Z,100344.84
2023-04-25T02:59:33.059Z,100349.88
2023-04-25T03:02:38.721Z,100342.72
2023-04-25T03:05:44.620Z,100341.94
2023-04-25T03:08:50.688Z,100333.94
2023-04-25T03:11:56.205Z,100326.13
2023-04-25T03:15:02.266Z,100338.19
2023-04-25T03:18:07.872Z,100328.25
2023-04-25T03:21:13.311Z,100327.97
2023-04-25T03:24:18.949Z,100326.91
2023-04-25T03:27:24.621Z,100333.03
2023-04-25T03:30:30.550Z,100337.03
2023-04-25T03:33:36.147Z,100335.72
2023-04-25T03:36:41.843Z,100334.03
2023-04-25T03:39:48.593Z,100338.59
2023-04-25T03:42:55.198Z,100338.88
2023-04-25T03:46:00.778Z,100347.50
2023-04-25T03:49:06.351Z,100348.03
2023-04-25T03:52:31.867Z,100346.97
2023-04-25T03:55:38.186Z,100352.59
2023-04-25T03:58:44.121Z,100351.44
2023-04-25T04:01:49.988Z,100358.19
2023-04-25T04:04:57.505Z,100370.81
2023-04-25T04:08:03.303Z,100381.00
2023-04-25T04:11:10.784Z,100384.25
2023-04-25T04:14:16.095Z,100382.47
2023-04-25T04:17:24.707Z,100383.00
2023-04-25T04:20:34.374Z,100374.00
2023-04-25T04:23:40.066Z,100369.66
2023-04-25T04:26:47.524Z,100367.06
2023-04-25T04:30:16.232Z,100368.13
2023-04-25T04:33:38.128Z,100367.56
2023-04-25T04:36:47.363Z,100362.88
2023-04-25T04:39:53.178Z,100367.91
2023-04-25T04:43:05.848Z,100355.91
2023-04-25T04:46:30.022Z,100355.19
2023-04-25T04:50:05.370Z,100343.66
2023-04-25T04:53:29.402Z,100330.03
2023-04-25T04:56:53.761Z,100328.41
2023-04-25T05:00:17.936Z,100330.88
2023-04-25T05:03:23.033Z,100338.38
2023-04-25T05:06:48.998Z,100367.34
2023-04-25T05:10:19.986Z,100393.09
2023-04-25T05:13:40.729Z,100421.19
2023-04-25T05:17:18.384Z,100450.84
2023-04-25T05:20:43.883Z,100474.75
2023-04-25T05:23:55.816Z,100484.78
2023-04-25T05:27:20.366Z,100483.53
2023-04-25T05:30:45.252Z,100479.31
2023-04-25T05:34:05.587Z,100480.06
2023-04-25T05:37:29.166Z,100447.50
2023-04-25T05:40:38.940Z,100441.81
2023-04-25T05:43:51.739Z,100460.91
2023-04-25T05:47:06.168Z,100469.25
2023-04-25T05:50:29.978Z,100484.19
2023-04-25T05:53:41.528Z,100504.81
2023-04-25T05:56:46.645Z,100488.72
2023-04-25T05:59:53.828Z,100493.28
2023-04-25T06:03:00.957Z,100491.84
2023-04-25T06:06:06.919Z,100488.47
2023-04-25T06:09:14.351Z,100492.28
2023-04-25T06:12:20.499Z,100488.56
2023-04-25T06:15:28.850Z,100481.50
2023-04-25T06:18:35.523Z,100476.59
2023-04-25T06:21:40.709Z,100474.09
2023-04-25T06:24:47.885Z,100471.34
2023-04-25T06:27:54.118Z,100473.31
2023-04-25T06:31:00.863Z,100473.81
2023-04-25T06:34:06.679Z,100466.00
2023-04-25T06:37:17.658Z,100472.63
2023-04-25T06:40:23.657Z,100468.69
2023-04-25T06:43:29.430Z,100464.72
2023-04-25T06:46:48.089Z,100461.22
2023-04-25T06:49:54.786Z,100455.16
2023-04-25T06:53:00.421Z,100448.38
2023-04-25T06:56:06.569Z,100447.38
2023-04-25T06:59:26.763Z,100451.59
2023-04-25T07:02:32.884Z,100444.38
2023-04-25T07:05:40.599Z,100437.63
2023-04-25T07:08:47.189Z,100439.56
2023-04-25T07:11:52.999Z,100441.75
2023-04-25T07:14:58.715Z,100456.38
2023-04-25T07:18:04.775Z,100455.31
2023-04-25T07:21:11.329Z,100463.06
2023-04-25T07:24:17.771Z,100471.97
2023-04-25T07:27:26.205Z,100466.44
2023-04-25T07:30:40.678Z,100463.56
2023-04-25T07:33:47.259Z,100474.41
2023-04-25T07:36:52.812Z,100465.00
2023-04-25T07:39:58.835Z,100479.13
2023-04-25T07:43:04.064Z,100477.78
2023-04-25T07:46:21.127Z,100473.31
2023-04-25T07:49:27.008Z,100466.06
2023-04-25T07:52:33.685Z,100462.78
2023-04-25T07:55:47.111Z,100447.13
2023-04-25T07:58:56.735Z,100428.78
2023-04-25T08:02:03.789Z,100414.00
2023-04-25T08:05:13.335Z,100421.69
2023-04-25T08:08:22.003Z,100427.53
2023-04-25T08:11:27.773Z,100425.84
2023-04-25T08:14:37.254Z,100425.72
2023-04-25T08:17:45.297Z,100430.38
2023-04-25T08:20:52.264Z,100430.91
2023-04-25T08:23:59.730Z,100437.34
2023-04-25T08:27:13.587Z,100444.59
2023-04-25T08:30:20.586Z,100459.28
2023-04-25T08:33:27.010Z,100454.34
2023-04-25T08:36:40.985Z,100471.09
2023-04-25T08:40:16.882Z,100479.44
2023-04-25T08:43:33.604Z,100499.47
2023-04-25T08:46:42.148Z,100488.53
2023-04-25T08:50:07.272Z,100497.53
2023-04-25T08:53:19.851Z,100511.22
2023-04-25T08:56:28.454Z,100512.31
2023-04-25T09:03:03.284Z,100518.19
2023-04-25T09:06:13.083Z,100517.09
2023-04-25T09:09:19.237Z,100517.59
2023-04-25T09:10:29.165Z,100515.19
2023-04-25T09:12:25.420Z,100508.88
2023-04-25T09:15:33.490Z,100513.09
2023-04-25T09:19:02.186Z,100510.00
2023-04-25T09:22:09.280Z,100513.31
2023-04-25T09:25:16.128Z,100521.84
2023-04-25T09:28:30.880Z,100517.84
2023-04-25T09:31:40.022Z,100510.44
2023-04-25T09:34:58.498Z,100513.34
2023-04-25T09:38:15.301Z,100513.94
2023-04-25T09:41:40.222Z,100515.44
2023-04-25T09:44:47.686Z,100515.19
2023-04-25T09:47:57.609Z,100518.56
2023-04-25T09:51:09.016Z,100518.44
2023-04-25T09:54:15.010Z,100525.31
2023-04-25T09:57:26.233Z,100523.91
2023-04-25T10:00:35.774Z,100537.84
2023-04-25T10:03:58.198Z,100529.88
2023-04-25T10:07:31.931Z,100536.66
2023-04-25T10:10:39.764Z,100533.91
2023-04-25T10:13:47.063Z,100544.88
2023-04-25T10:16:54.943Z,100536.03
2023-04-25T10:20:06.652Z,100538.44
2023-04-25T10:23:15.058Z,100536.03
2023-04-25T10:26:21.440Z,100536.28
2023-04-25T10:29:27.904Z,100532.53
2023-04-25T10:32:34.569Z,100521.81
2023-04-25T10:35:40.285Z,100522.31
2023-04-25T10:38:47.346Z,100527.19
2023-04-25T10:42:00.295Z,100531.75
2023-04-25T10:45:07.250Z,100531.50
2023-04-25T10:48:33.136Z,100545.72
2023-04-25T10:51:54.379Z,100538.47
2023-04-25T10:55:01.988Z,100537.41
2023-04-25T10:58:07.772Z,100547.38
2023-04-25T11:01:21.810Z,100530.69
2023-04-25T11:04:37.531Z,100536.84
2023-04-25T11:08:07.736Z,100536.88
2023-04-25T11:11:14.442Z,100540.84
2023-04-25T11:14:21.723Z,100539.75
2023-04-25T11:17:27.333Z,100538.06
2023-04-25T11:20:33.052Z,100535.66
2023-04-25T11:23:38.773Z,100540.81
2023-04-25T11:26:45.191Z,100531.72
2023-04-25T11:29:50.762Z,100536.44
2023-04-25T11:32:56.097Z,100529.50
2023-04-25T11:36:02.054Z,100533.28
2023-04-25T11:39:08.109Z,100524.16
2023-04-25T11:42:14.216Z,100522.75
2023-04-25T11:45:20.009Z,100521.31
2023-04-25T11:48:26.679Z,100528.28
2023-04-25T11:51:43.245Z,100531.81
2023-04-25T11:54:48.711Z,100546.28
2023-04-25T11:57:54.219Z,100524.63
2023-04-25T12:01:00.841Z,100521.72
2023-04-25T12:04:18.655Z,100525.25
2023-04-25T12:07:31.859Z,100520.25
2023-04-25T12:10:42.488Z,100515.84
2023-04-25T12:13:54.565Z,100511.78
2023-04-25T12:17:02.010Z,100509.91
2023-04-25T12:20:16.503Z,100512.53
2023-04-25T12:23:29.547Z,100506.16
2023-04-25T12:26:51.755Z,100513.88
2023-04-25T12:29:58.397Z,100511.63
2023-04-25T12:33:04.055Z,100510.91
2023-04-25T12:36:11.452Z,100504.16
2023-04-25T12:39:20.896Z,100512.31
2023-04-25T12:42:27.093Z,100506.84
2023-04-25T12:45:32.931Z,100513.56
2023-04-25T12:48:39.546Z,100512.38
2023-04-25T12:51:45.418Z,100527.50
2023-04-25T12:54:51.204Z,100533.44
2023-04-25T12:57:57.143Z,100530.53
2023-04-25T13:01:03.109Z,100523.63
2023-04-25T13:04:09.436Z,100529.31
2023-04-25T13:07:14.988Z,100534.72
2023-04-25T13:10:20.480Z,100533.09
2023-04-25T13:13:28.339Z,100538.22
2023-04-25T13:16:34.446Z,100543.84
2023-04-25T13:19:40.713Z,100550.81
2023-04-25T13:22:47.013Z,100552.19
2023-04-25T13:25:53.126Z,100562.13
2023-04-25T13:28:59.145Z,100566.94
2023-04-25T13:32:05.440Z,100564.00
2023-04-25T13:35:15.157Z,100576.06
2023-04-25T13:38:23.550Z,100580.34
2023-04-25T13:41:29.656Z,100581.38
2023-04-25T13:44:35.691Z,100577.38
2023-04-25T13:47:41.517Z,100576.25
2023-04-25T13:50:47.548Z,100580.78
2023-04-25T13:53:53.305Z,100584.00
2023-04-25T13:57:00.565Z,100586.06
2023-04-25T14:00:10.229Z,100582.78
2023-04-25T14:03:16.129Z,100581.78
2023-04-25T14:06:24.286Z,100576.16
2023-04-25T14:09:31.641Z,100589.31
2023-04-25T14:12:41.672Z,100600.50
2023-04-25T14:15:47.846Z,100599.97
2023-04-25T14:18:55.968Z,100607.50
2023-04-25T14:22:01.872Z,100616.44
2023-04-25T14:25:08.111Z,100619.09
2023-04-25T14:28:14.027Z,100613.19
2023-04-25T14:31:20.315Z,100622.38
2023-04-25T14:34:28.960Z,100632.28
2023-04-25T14:37:34.970Z,100646.09
2023-04-25T14:40:40.614Z,100647.03
2023-04-25T14:43:46.489Z,100648.09
2023-04-25T14:46:53.078Z,100653.94
2023-04-25T14:49:58.416Z,100658.88
2023-04-25T14:53:03.835Z,100659.66
2023-04-25T14:56:10.092Z,100655.88
2023-04-25T14:59:15.845Z,100643.50
2023-04-25T15:02:21.521Z,100645.53
2023-04-25T15:05:27.041Z,100630.00
2023-04-25T15:08:33.344Z,100604.06
2023-04-25T15:11:39.847Z,100586.38
2023-04-25T15:14:45.164Z,100551.47
2023-04-25T15:17:51.418Z,100548.16
2023-04-25T15:20:56.805Z,100568.16
2023-04-25T15:24:02.578Z,100573.28
2023-04-25T15:27:08.303Z,100588.84
2023-04-25T15:30:16.639Z,100599.19
2023-04-25T15:33:22.099Z,100593.81
2023-04-25T15:36:27.936Z,100602.81
2023-04-25T15:39:33.497Z,100591.69
2023-04-25T15:42:52.077Z,100592.41
2023-04-25T15:45:57.735Z,100579.44
2023-04-25T15:49:03.736Z,100588.63
2023-04-25T15:52:09.295Z,100590.19
2023-04-25T15:55:15.374Z,100588.03
2023-04-25T15:58:20.925Z,100599.50
2023-04-25T16:01:29.056Z,100605.84
2023-04-25T16:04:35.940Z,100608.31
2023-04-25T16:07:43.020Z,100613.34
2023-04-25T16:10:49.262Z,100610.66
2023-04-25T16:13:54.591Z,100602.06
2023-04-25T16:17:02.829Z,100598.19
2023-04-25T16:20:12.787Z,100601.91
2023-04-25T16:23:19.058Z,100609.22
2023-04-25T16:26:24.381Z,100610.13
2023-04-25T16:29:30.534Z,100601.66
2023-04-25T16:32:36.962Z,100597.34
2023-04-25T16:35:42.756Z,100593.19
2023-04-25T16:38:48.611Z,100587.06
2023-04-25T16:41:54.609Z,100589.53
2023-04-25T16:44:59.984Z,100587.09
2023-04-25T16:48:05.388Z,100586.00
2023-04-25T16:51:10.607Z,100584.63
2023-04-25T16:54:16.518Z,100583.22
2023-04-25T16:57:21.785Z,100582.06
2023-04-25T17:00:26.842Z,100588.34
2023-04-25T17:03:34.677Z,100599.28
2023-04-25T17:06:41.783Z,100598.13
2023-04-25T17:09:47.498Z,100602.38
2023-04-25T17:12:53.204Z,100603.84
2023-04-25T17:15:59.703Z,100613.22
2023-04-25T17:19:06.522Z,100617.78
2023-04-25T17:22:12.306Z,100618.88
2023-04-25T17:25:18.114Z,100619.22
2023-04-25T17:28:23.658Z,100619.72
2023-04-25T17:31:29.007Z,100621.97
2023-04-25T17:34:37.876Z,100623.94
2023-04-25T17:38:04.719Z,100624.44
2023-04-25T17:41:10.926Z,100631.00
2023-04-25T17:44:16.411Z,100630.59
2023-04-25T17:47:23.487Z,100630.34
2023-04-25T17:50:29.200Z,100638.34
2023-04-25T17:53:35.734Z,100643.63
2023-04-25T17:56:45.050Z,100635.94
2023-04-25T17:59:50.516Z,100636.50
2023-04-25T18:02:56.895Z,100642.25
2023-04-25T18:06:02.432Z,100636.03
2023-04-25T18:09:26.425Z,100638.94
2023-04-25T18:12:34.414Z,100625.53
2023-04-25T18:15:39.952Z,100636.03
2023-04-25T18:18:47.373Z,100641.53
2023-04-25T18:21:55.488Z,100645.56
2023-04-25T18:25:01.671Z,100654.91
2023-04-25T18:28:07.647Z,100654.84
2023-04-25T18:31:14.255Z,100654.91
2023-04-25T18:34:21.900Z,100660.44
2023-04-25T18:37:28.750Z,100665.59
2023-04-25T18:40:35.181Z,100669.03
2023-04-25T18:43:46.035Z,100678.44
2023-04-25T18:46:51.261Z,100682.16
2023-04-25T18:49:57.258Z,100684.94
2023-04-25T18:53:02.848Z,100687.47
2023-04-25T18:56:08.274Z,100696.22
2023-04-25T18:59:15.825Z,100699.72
2023-04-25T19:02:23.048Z,100718.03
2023-04-25T19:05:28.509Z,100715.56
2023-04-25T19:08:33.996Z,100720.34
2023-04-25T19:11:39.837Z,100727.81
2023-04-25T19:14:45.616Z,100739.16
2023-04-25T19:17:51.949Z,100744.00
2023-04-25T19:20:57.374Z,100750.91
2023-04-25T19:24:05.227Z,100759.06
2023-04-25T19:27:10.912Z,100761.16
2023-04-25T19:30:16.625Z,100771.78
2023-04-25T19:33:21.957Z,100781.22
2023-04-25T19:36:29.019Z,100779.69
2023-04-25T19:39:34.470Z,100787.63
2023-04-25T19:42:40.598Z,100793.78
2023-04-25T19:45:46.765Z,100791.53
2023-04-25T19:48:52.753Z,100784.69
2023-04-25T19:51:58.573Z,100786.38
2023-04-25T19:55:05.257Z,100794.84
2023-04-25T19:58:11.122Z,100795.91
2023-04-25T20:01:17.552Z,100800.19
2023-04-25T20:04:23.986Z,100801.94
2023-04-25T20:07:30.107Z,100806.00
2023-04-25T20:10:35.617Z,100806.06
2023-04-25T20:13:42.071Z,100799.19
2023-04-25T20:16:48.826Z,100811.53
2023-04-25T20:19:54.300Z,100800.75
2023-04-25T20:23:00.022Z,100810.44
2023-04-25T20:26:05.546Z,100808.19
2023-04-25T20:29:11.377Z,100807.94
2023-04-25T20:32:16.341Z,100806.09
2023-04-25T20:35:23.430Z,100808.34
2023-04-25T20:38:29.309Z,100800.69
2023-04-25T20:41:35.162Z,100813.31
2023-04-25T20:44:41.261Z,100812.25
2023-04-25T20:47:46.973Z,100814.34
2023-04-25T20:50:52.413Z,100823.19
2023-04-25T20:53:59.698Z,100815.44
2023-04-25T20:57:05.465Z,100810.09
2023-04-25T21:00:27.622Z,100800.78
2023-04-25T21:03:34.201Z,100806.03
2023-04-25T21:06:40.109Z,100811.22
2023-04-25T21:09:45.848Z,100805.31
2023-04-25T21:12:52.625Z,100820.94
2023-04-25T21:15:58.563Z,100810.75
2023-04-25T21:19:04.296Z,100812.03
2023-04-25T21:22:09.762Z,100805.97
2023-04-25T21:25:20.766Z,100800.56
2023-04-25T21:28:26.751Z,100797.50
2023-04-25T21:31:32.656Z,100805.13
2023-04-25T21:34:38.811Z,100812.91
2023-04-25T21:38:04.764Z,100811.31
2023-04-25T21:41:10.343Z,100808.75
2023-04-25T21:44:16.345Z,100815.69
2023-04-25T21:47:21.727Z,100815.88
2023-04-25T21:50:27.166Z,100818.75
2023-04-25T21:53:32.677Z,100813.63
2023-04-25T21:56:38.395Z,100824.97
2023-04-25T21:59:44.341Z,100819.16
2023-04-25T22:02:49.809Z,100820.78
2023-04-25T22:05:55.271Z,100825.97
2023-04-25T22:09:00.836Z,100819.63
2023-04-25T22:12:08.159Z,100815.38
2023-04-25T22:15:13.978Z,100822.81
2023-04-25T22:18:20.043Z,100821.00
2023-04-25T22:21:25.740Z,100822.50
2023-04-25T22:24:31.917Z,100816.44
2023-04-25T22:27:37.505Z,100821.78
2023-04-25T22:30:43.150Z,100828.81
2023-04-25T22:33:49.309Z,100829.41
2023-04-25T22:36:55.554Z,100824.06
2023-04-25T22:40:02.101Z,100831.13
2023-04-25T22:43:08.144Z,100836.94
2023-04-25T22:46:18.190Z,100839.00
2023-04-25T22:49:25.159Z,100830.13
2023-04-25T22:52:31.160Z,100832.56
2023-04-25T22:55:37.185Z,100832.31
2023-04-25T22:58:44.166Z,100833.59
2023-04-25T23:01:50.238Z,100826.38
2023-04-25T23:04:56.292Z,100844.81
2023-04-25T23:08:01.683Z,100845.16
2023-04-25T23:11:08.122Z,100839.94
2023-04-25T23:14:13.940Z,100844.31
2023-04-25T23:17:20.713Z,100843.53
2023-04-25T23:20:26.950Z,100842.81
2023-04-25T23:23:32.374Z,100846.84
2023-04-25T23:26:38.695Z,100846.50
2023-04-25T23:29:44.124Z,100851.50
2023-04-25T23:32:50.009Z,100857.44
2023-04-25T23:35:55.921Z,100844.63
2023-04-25T23:39:02.412Z,100842.66
2023-04-25T23:42:08.120Z,100840.59
2023-04-25T23:45:16.233Z,100836.59
2023-04-25T23:48:21.676Z,100843.78
2023-04-25T23:51:27.687Z,100838.13
2023-04-25T23:54:32.932Z,100839.31
2023-04-25T23:57:38.397Z,100841.72
